sensor_id;sensor_type;location;lat;lon;timestamp;pressure;altitude;pressure_sealevel;temperature;humidity
65800;BME280;52544;48.116;11.660;2023-11-18T00:01:21;96302.16;;;4.63;100.00
65800;BME280;52544;48.116;11.660;2023-11-18T00:03:47;96301.38;;;4.61;100.00
65800;BME280;52544;48.116;11.660;2023-11-18T00:06:13;96304.31;;;4.55;100.00
65800;BME280;52544;48.116;11.660;2023-11-18T00:08:38;96300.66;;;4.58;100.00
65800;BME280;52544;48.116;11.660;2023-11-18T00:11:04;96302.06;;;4.65;100.00
65800;BME280;52544;48.116;11.660;2023-11-18T00:13:29;96296.91;;;4.63;100.00
65800;BME280;52544;48.116;11.660;2023-11-18T00:15:55;96299.81;;;4.57;100.00
65800;BME280;52544;48.116;11.660;2023-11-18T00:18:20;96311.16;;;4.58;100.00
65800;BME280;52544;48.116;11.660;2023-11-18T00:20:46;96306.63;;;4.61;100.00
65800;BME280;52544;48.116;11.660;2023-11-18T00:23:11;96298.47;;;4.67;100.00
65800;BME280;52544;48.116;11.660;2023-11-18T00:25:37;96309.09;;;4.64;100.00
65800;BME280;52544;48.116;11.660;2023-11-18T00:28:05;96307.59;;;4.59;100.00
65800;BME280;52544;48.116;11.660;2023-11-18T00:30:33;96314.47;;;4.61;100.00
65800;BME280;52544;48.116;11.660;2023-11-18T00:32:58;96313.06;;;4.54;100.00
65800;BME280;52544;48.116;11.660;2023-11-18T00:35:24;96310.31;;;4.57;100.00
65800;BME280;52544;48.116;11.660;2023-11-18T00:37:49;96307.47;;;4.62;100.00
65800;BME280;52544;48.116;11.660;2023-11-18T00:40:15;96310.53;;;4.53;100.00
65800;BME280;52544;48.116;11.660;2023-11-18T00:42:43;96322.50;;;4.58;100.00
65800;BME280;52544;48.116;11.660;2023-11-18T00:45:09;96320.56;;;4.62;100.00
65800;BME280;52544;48.116;11.660;2023-11-18T00:47:38;96324.88;;;4.63;100.00
65800;BME280;52544;48.116;11.660;2023-11-18T00:50:04;96326.84;;;4.59;100.00
65800;BME280;52544;48.116;11.660;2023-11-18T00:52:33;96319.94;;;4.57;100.00
65800;BME280;52544;48.116;11.660;2023-11-18T00:54:58;96313.72;;;4.59;100.00
65800;BME280;52544;48.116;11.660;2023-11-18T00:57:24;96320.28;;;4.50;100.00
65800;BME280;52544;48.116;11.660;2023-11-18T00:59:49;96322.66;;;4.55;100.00
65800;BME280;52544;48.116;11.660;2023-11-18T01:02:15;96321.13;;;4.51;100.00
65800;BME280;52544;48.116;11.660;2023-11-18T01:04:41;96321.25;;;4.48;100.00
65800;BME280;52544;48.116;11.660;2023-11-18T01:07:07;96324.81;;;4.47;100.00
65800;BME280;52544;48.116;11.660;2023-11-18T01:09:33;96326.66;;;4.45;100.00
65800;BME280;52544;48.116;11.660;2023-11-18T01:12:04;96325.34;;;4.54;100.00
65800;BME280;52544;48.116;11.660;2023-11-18T01:14:31;96329.69;;;4.55;100.00
65800;BME280;52544;48.116;11.660;2023-11-18T01:16:56;96335.69;;;4.57;100.00
65800;BME280;52544;48.116;11.660;2023-11-18T01:19:22;96332.00;;;4.61;100.00
65800;BME280;52544;48.116;11.660;2023-11-18T01:21:49;96328.53;;;4.60;100.00
65800;BME280;52544;48.116;11.660;2023-11-18T01:24:14;96329.59;;;4.56;100.00
65800;BME280;52544;48.116;11.660;2023-11-18T01:26:41;96334.28;;;4.49;100.00
65800;BME280;52544;48.116;11.660;2023-11-18T01:29:07;96344.63;;;4.53;100.00
65800;BME280;52544;48.116;11.660;2023-11-18T01:31:33;96342.84;;;4.53;100.00
65800;BME280;52544;48.116;11.660;2023-11-18T01:33:58;96337.91;;;4.47;100.00
65800;BME280;52544;48.116;11.660;2023-11-18T01:36:25;96343.91;;;4.49;100.00
65800;BME280;52544;48.116;11.660;2023-11-18T01:38:50;96341.53;;;4.44;100.00
65800;BME280;52544;48.116;11.660;2023-11-18T01:41:16;96346.31;;;4.54;100.00
65800;BME280;52544;48.116;11.660;2023-11-18T01:43:45;96347.16;;;4.54;100.00
65800;BME280;52544;48.116;11.660;2023-11-18T01:46:11;96348.22;;;4.50;100.00
65800;BME280;52544;48.116;11.660;2023-11-18T01:48:39;96348.53;;;4.44;100.00
65800;BME280;52544;48.116;11.660;2023-11-18T01:51:06;96351.16;;;4.44;100.00
65800;BME280;52544;48.116;11.660;2023-11-18T01:53:34;96356.75;;;4.55;100.00
65800;BME280;52544;48.116;11.660;2023-11-18T01:56:02;96350.78;;;4.51;100.00
65800;BME280;52544;48.116;11.660;2023-11-18T01:58:28;96354.13;;;4.55;100.00
65800;BME280;52544;48.116;11.660;2023-11-18T02:00:56;96358.34;;;4.58;100.00
65800;BME280;52544;48.116;11.660;2023-11-18T02:03:22;96358.06;;;4.64;100.00
65800;BME280;52544;48.116;11.660;2023-11-18T02:05:48;96364.16;;;4.64;100.00
65800;BME280;52544;48.116;11.660;2023-11-18T02:08:14;96358.75;;;4.67;100.00
65800;BME280;52544;48.116;11.660;2023-11-18T02:10:47;96360.75;;;4.62;100.00
65800;BME280;52544;48.116;11.660;2023-11-18T02:13:21;96360.44;;;4.68;100.00
65800;BME280;52544;48.116;11.660;2023-11-18T02:15:53;96363.13;;;4.67;100.00
65800;BME280;52544;48.116;11.660;2023-11-18T02:18:19;96373.63;;;4.67;100.00
65800;BME280;52544;48.116;11.660;2023-11-18T02:20:46;96368.00;;;4.57;100.00
65800;BME280;52544;48.116;11.660;2023-11-18T02:23:13;96370.84;;;4.53;100.00
65800;BME280;52544;48.116;11.660;2023-11-18T02:25:45;96358.53;;;4.55;100.00
65800;BME280;52544;48.116;11.660;2023-11-18T02:28:11;96353.09;;;4.58;100.00
65800;BME280;52544;48.116;11.660;2023-11-18T02:30:36;96359.19;;;4.58;100.00
65800;BME280;52544;48.116;11.660;2023-11-18T02:33:06;96361.81;;;4.58;100.00
65800;BME280;52544;48.116;11.660;2023-11-18T02:35:44;96360.59;;;4.65;100.00
65800;BME280;52544;48.116;11.660;2023-11-18T02:38:16;96358.66;;;4.51;100.00
65800;BME280;52544;48.116;11.660;2023-11-18T02:40:44;96361.06;;;4.56;100.00
65800;BME280;52544;48.116;11.660;2023-11-18T02:43:11;96355.94;;;4.53;100.00
65800;BME280;52544;48.116;11.660;2023-11-18T02:45:37;96359.19;;;4.58;100.00
65800;BME280;52544;48.116;11.660;2023-11-18T02:48:06;96366.06;;;4.61;100.00
65800;BME280;52544;48.116;11.660;2023-11-18T02:50:31;96356.34;;;4.63;100.00
65800;BME280;52544;48.116;11.660;2023-11-18T02:52:57;96365.09;;;4.63;100.00
65800;BME280;52544;48.116;11.660;2023-11-18T02:55:22;96361.06;;;4.56;100.00
65800;BME280;52544;48.116;11.660;2023-11-18T02:57:49;96360.13;;;4.57;100.00
65800;BME280;52544;48.116;11.660;2023-11-18T03:00:17;96367.69;;;4.63;100.00
65800;BME280;52544;48.116;11.660;2023-11-18T03:02:50;96368.00;;;4.57;100.00
65800;BME280;52544;48.116;11.660;2023-11-18T03:05:17;96361.06;;;4.56;100.00
65800;BME280;52544;48.116;11.660;2023-11-18T03:07:44;96369.53;;;4.61;100.00
65800;BME280;52544;48.116;11.660;2023-11-18T03:10:12;96366.16;;;4.59;100.00
65800;BME280;52544;48.116;11.660;2023-11-18T03:12:53;96372.31;;;4.58;100.00
65800;BME280;52544;48.116;11.660;2023-11-18T03:15:19;96365.22;;;4.60;100.00
65800;BME280;52544;48.116;11.660;2023-11-18T03:17:48;96374.31;;;4.53;100.00
65800;BME280;52544;48.116;11.660;2023-11-18T03:20:19;96378.19;;;4.63;100.00
65800;BME280;52544;48.116;11.660;2023-11-18T03:22:48;96375.31;;;4.50;100.00
65800;BME280;52544;48.116;11.660;2023-11-18T03:25:16;96378.63;;;4.54;100.00
65800;BME280;52544;48.116;11.660;2023-11-18T03:27:42;96383.56;;;4.60;100.00
65800;BME280;52544;48.116;11.660;2023-11-18T03:30:08;96381.25;;;4.54;100.00
65800;BME280;52544;48.116;11.660;2023-11-18T03:32:35;96378.34;;;4.60;100.00
65800;BME280;52544;48.116;11.660;2023-11-18T03:35:05;96385.03;;;4.66;100.00
65800;BME280;52544;48.116;11.660;2023-11-18T03:37:40;96378.34;;;4.60;100.00
65800;BME280;52544;48.116;11.660;2023-11-18T03:40:14;96391.31;;;4.63;100.00
65800;BME280;52544;48.116;11.660;2023-11-18T03:42:41;96382.78;;;4.58;100.00
65800;BME280;52544;48.116;11.660;2023-11-18T03:45:07;96391.06;;;4.68;100.00
65800;BME280;52544;48.116;11.660;2023-11-18T03:47:34;96385.25;;;4.61;100.00
65800;BME280;52544;48.116;11.660;2023-11-18T03:50:00;96391.50;;;4.59;100.00
65800;BME280;52544;48.116;11.660;2023-11-18T03:52:26;96393.84;;;4.65;100.00
65800;BME280;52544;48.116;11.660;2023-11-18T03:54:53;96401.97;;;4.59;100.00
65800;BME280;52544;48.116;11.660;2023-11-18T03:57:18;96403.47;;;4.64;100.00
65800;BME280;52544;48.116;11.660;2023-11-18T03:59:44;96402.69;;;4.62;100.00
65800;BME280;52544;48.116;11.660;2023-11-18T04:02:09;96399.84;;;4.67;100.00
65800;BME280;52544;48.116;11.660;2023-11-18T04:04:36;96405.31;;;4.62;100.00
65800;BME280;52544;48.116;11.660;2023-11-18T04:07:02;96409.66;;;4.63;100.00
65800;BME280;52544;48.116;11.660;2023-11-18T04:09:27;96400.25;;;4.59;100.00
65800;BME280;52544;48.116;11.660;2023-11-18T04:11:53;96407.22;;;4.59;100.00
65800;BME280;52544;48.116;11.660;2023-11-18T04:14:18;96401.94;;;4.60;100.00
65800;BME280;52544;48.116;11.660;2023-11-18T04:16:47;96405.00;;;4.51;100.00
65800;BME280;52544;48.116;11.660;2023-11-18T04:19:14;96404.41;;;4.63;100.00
65800;BME280;52544;48.116;11.660;2023-11-18T04:21:39;96399.31;;;4.60;100.00
65800;BME280;52544;48.116;11.660;2023-11-18T04:24:05;96403.00;;;4.56;100.00
65800;BME280;52544;48.116;11.660;2023-11-18T04:26:31;96402.91;;;4.58;100.00
65800;BME280;52544;48.116;11.660;2023-11-18T04:28:57;96404.56;;;4.60;100.00
65800;BME280;52544;48.116;11.660;2023-11-18T04:31:22;96408.72;;;4.64;100.00
65800;BME280;52544;48.116;11.660;2023-11-18T04:33:48;96408.78;;;4.63;100.00
65800;BME280;52544;48.116;11.660;2023-11-18T04:36:14;96408.94;;;4.60;100.00
65800;BME280;52544;48.116;11.660;2023-11-18T04:38:41;96411.94;;;4.52;100.00
65800;BME280;52544;48.116;11.660;2023-11-18T04:41:07;96400.28;;;4.58;100.00
65800;BME280;52544;48.116;11.660;2023-11-18T04:43:32;96415.03;;;4.60;100.00
65800;BME280;52544;48.116;11.660;2023-11-18T04:45:59;96407.44;;;4.54;100.00
65800;BME280;52544;48.116;11.660;2023-11-18T04:48:24;96405.47;;;4.59;100.00
65800;BME280;52544;48.116;11.660;2023-11-18T04:50:50;96409.19;;;4.55;100.00
65800;BME280;52544;48.116;11.660;2023-11-18T04:53:15;96400.16;;;4.61;100.00
65800;BME280;52544;48.116;11.660;2023-11-18T04:55:40;96408.63;;;4.66;100.00
65800;BME280;52544;48.116;11.660;2023-11-18T04:58:06;96398.00;;;4.69;100.00
65800;BME280;52544;48.116;11.660;2023-11-18T05:00:32;96410.88;;;4.73;100.00
65800;BME280;52544;48.116;11.660;2023-11-18T05:02:58;96411.03;;;4.70;100.00
65800;BME280;52544;48.116;11.660;2023-11-18T05:05:23;96414.44;;;4.72;100.00
65800;BME280;52544;48.116;11.660;2023-11-18T05:07:49;96408.88;;;4.61;100.00
65800;BME280;52544;48.116;11.660;2023-11-18T05:10:14;96418.13;;;4.68;100.00
65800;BME280;52544;48.116;11.660;2023-11-18T05:12:40;96417.66;;;4.60;100.00
65800;BME280;52544;48.116;11.660;2023-11-18T05:15:06;96414.34;;;4.57;100.00
65800;BME280;52544;48.116;11.660;2023-11-18T05:17:36;96412.09;;;4.66;100.00
65800;BME280;52544;48.116;11.660;2023-11-18T05:20:03;96416.59;;;4.64;100.00
65800;BME280;52544;48.116;11.660;2023-11-18T05:22:29;96428.75;;;4.65;100.00
65800;BME280;52544;48.116;11.660;2023-11-18T05:24:54;96412.19;;;4.65;100.00
65800;BME280;52544;48.116;11.660;2023-11-18T05:27:19;96410.78;;;4.58;100.00
65800;BME280;52544;48.116;11.660;2023-11-18T05:29:45;96410.06;;;4.54;100.00
65800;BME280;52544;48.116;11.660;2023-11-18T05:32:13;96402.38;;;4.51;100.00
65800;BME280;52544;48.116;11.660;2023-11-18T05:34:39;96398.56;;;4.39;100.00
65800;BME280;52544;48.116;11.660;2023-11-18T05:37:04;96393.81;;;4.47;100.00
65800;BME280;52544;48.116;11.660;2023-11-18T05:39:30;96395.06;;;4.58;100.00
65800;BME280;52544;48.116;11.660;2023-11-18T05:41:58;96399.59;;;4.54;100.00
65800;BME280;52544;48.116;11.660;2023-11-18T05:44:25;96393.59;;;4.52;100.00
65800;BME280;52544;48.116;11.660;2023-11-18T05:46:59;96391.50;;;4.59;100.00
65800;BME280;52544;48.116;11.660;2023-11-18T05:49:25;96401.31;;;4.55;100.00
65800;BME280;52544;48.116;11.660;2023-11-18T05:51:51;96401.06;;;4.42;100.00
65800;BME280;52544;48.116;11.660;2023-11-18T05:54:17;96406.13;;;4.45;100.00
65800;BME280;52544;48.116;11.660;2023-11-18T05:56:43;96406.06;;;4.47;100.00
65800;BME280;52544;48.116;11.660;2023-11-18T05:59:08;96416.59;;;4.45;100.00
65800;BME280;52544;48.116;11.660;2023-11-18T06:01:34;96417.41;;;4.47;100.00
65800;BME280;52544;48.116;11.660;2023-11-18T06:04:00;96424.66;;;4.42;100.00
65800;BME280;52544;48.116;11.660;2023-11-18T06:06:26;96420.88;;;4.48;100.00
65800;BME280;52544;48.116;11.660;2023-11-18T06:08:51;96428.66;;;4.49;100.00
65800;BME280;52544;48.116;11.660;2023-11-18T06:11:18;96432.19;;;4.48;100.00
65800;BME280;52544;48.116;11.660;2023-11-18T06:13:49;96430.50;;;4.47;100.00
65800;BME280;52544;48.116;11.660;2023-11-18T06:16:16;96441.41;;;4.57;100.00
65800;BME280;52544;48.116;11.660;2023-11-18T06:18:44;96458.97;;;4.55;100.00
65800;BME280;52544;48.116;11.660;2023-11-18T06:21:17;96451.97;;;4.56;100.00
65800;BME280;52544;48.116;11.660;2023-11-18T06:23:44;96447.13;;;4.65;100.00
65800;BME280;52544;48.116;11.660;2023-11-18T06:26:11;96442.94;;;4.61;100.00
65800;BME280;52544;48.116;11.660;2023-11-18T06:28:44;96448.78;;;4.49;100.00
65800;BME280;52544;48.116;11.660;2023-11-18T06:31:10;96442.31;;;4.56;100.00
65800;BME280;52544;48.116;11.660;2023-11-18T06:33:45;96446.63;;;4.57;100.00
65800;BME280;52544;48.116;11.660;2023-11-18T06:38:39;96440.84;;;4.50;100.00
65800;BME280;52544;48.116;11.660;2023-11-18T06:41:06;96448.91;;;4.46;100.00
65800;BME280;52544;48.116;11.660;2023-11-18T06:43:35;96447.22;;;4.45;100.00
65800;BME280;52544;48.116;11.660;2023-11-18T06:46:20;96442.59;;;4.50;100.00
65800;BME280;52544;48.116;11.660;2023-11-18T06:48:49;96446.78;;;4.54;100.00
65800;BME280;52544;48.116;11.660;2023-11-18T06:51:17;96440.41;;;4.60;100.00
65800;BME280;52544;48.116;11.660;2023-11-18T06:53:43;96436.22;;;4.56;100.00
65800;BME280;52544;48.116;11.660;2023-11-18T06:56:11;96435.88;;;4.63;100.00
65800;BME280;52544;48.116;11.660;2023-11-18T06:58:39;96443.44;;;4.69;100.00
65800;BME280;52544;48.116;11.660;2023-11-18T07:01:06;96443.44;;;4.69;100.00
65800;BME280;52544;48.116;11.660;2023-11-18T07:03:31;96446.19;;;4.66;100.00
65800;BME280;52544;48.116;11.660;2023-11-18T07:05:57;96451.44;;;4.66;100.00
65800;BME280;52544;48.116;11.660;2023-11-18T07:08:22;96448.44;;;4.74;100.00
65800;BME280;52544;48.116;11.660;2023-11-18T07:10:49;96452.84;;;4.73;100.00
65800;BME280;52544;48.116;11.660;2023-11-18T07:13:15;96449.28;;;4.74;100.00
65800;BME280;52544;48.116;11.660;2023-11-18T07:15:41;96454.53;;;4.74;100.00
65800;BME280;52544;48.116;11.660;2023-11-18T07:18:08;96447.38;;;4.78;100.00
65800;BME280;52544;48.116;11.660;2023-11-18T07:20:34;96442.84;;;4.82;100.00
65800;BME280;52544;48.116;11.660;2023-11-18T07:23:00;96453.41;;;4.80;100.00
65800;BME280;52544;48.116;11.660;2023-11-18T07:25:25;96449.28;;;4.74;100.00
65800;BME280;52544;48.116;11.660;2023-11-18T07:27:51;96451.91;;;4.74;100.00
65800;BME280;52544;48.116;11.660;2023-11-18T07:30:16;96448.69;;;4.87;100.00
65800;BME280;52544;48.116;11.660;2023-11-18T07:32:42;96446.16;;;4.85;100.00
65800;BME280;52544;48.116;11.660;2023-11-18T07:35:07;96448.84;;;4.84;100.00
65800;BME280;52544;48.116;11.660;2023-11-18T07:37:35;96455.81;;;4.85;100.00
65800;BME280;52544;48.116;11.660;2023-11-18T07:40:05;96456.28;;;4.93;100.00
65800;BME280;52544;48.116;11.660;2023-11-18T07:42:31;96466.78;;;4.93;100.00
65800;BME280;52544;48.116;11.660;2023-11-18T07:45:01;96466.47;;;4.99;100.00
65800;BME280;52544;48.116;11.660;2023-11-18T07:47:30;96469.22;;;4.96;100.00
65800;BME280;52544;48.116;11.660;2023-11-18T07:49:58;96474.94;;;4.87;100.00
65800;BME280;52544;48.116;11.660;2023-11-18T07:52:25;96465.47;;;5.01;100.00
65800;BME280;52544;48.116;11.660;2023-11-18T07:54:52;96473.34;;;5.01;100.00
65800;BME280;52544;48.116;11.660;2023-11-18T07:57:18;96469.22;;;4.96;100.00
65800;BME280;52544;48.116;11.660;2023-11-18T07:59:43;96463.38;;;5.08;100.00
65800;BME280;52544;48.116;11.660;2023-11-18T08:02:08;96466.47;;;5.16;100.00
65800;BME280;52544;48.116;11.660;2023-11-18T08:04:36;96458.00;;;5.11;100.00
65800;BME280;52544;48.116;11.660;2023-11-18T08:07:02;96465.00;;;5.11;100.00
65800;BME280;52544;48.116;11.660;2023-11-18T08:09:30;96458.22;;;5.24;100.00
65800;BME280;52544;48.116;11.660;2023-11-18T08:11:57;96468.56;;;5.27;100.00
65800;BME280;52544;48.116;11.660;2023-11-18T08:14:22;96470.03;;;5.33;100.00
65800;BME280;52544;48.116;11.660;2023-11-18T08:16:48;96468.94;;;5.37;100.00
65800;BME280;52544;48.116;11.660;2023-11-18T08:19:15;96475.59;;;5.44;100.00
65800;BME280;52544;48.116;11.660;2023-11-18T08:21:40;96481.59;;;5.46;100.00
65800;BME280;52544;48.116;11.660;2023-11-18T08:24:07;96472.56;;;5.34;100.00
65800;BME280;52544;48.116;11.660;2023-11-18T08:26:34;96466.41;;;5.35;100.00
65800;BME280;52544;48.116;11.660;2023-11-18T08:29:00;96465.47;;;5.54;100.00
65800;BME280;52544;48.116;11.660;2023-11-18T08:31:26;96472.03;;;5.45;100.00
65800;BME280;52544;48.116;11.660;2023-11-18T08:33:52;96464.63;;;5.53;100.00
65800;BME280;52544;48.116;11.660;2023-11-18T08:36:20;96473.25;;;5.55;100.00
65800;BME280;52544;48.116;11.660;2023-11-18T08:38:45;96480.28;;;5.55;100.00
65800;BME280;52544;48.116;11.660;2023-11-18T08:41:12;96487.91;;;5.59;100.00
65800;BME280;52544;48.116;11.660;2023-11-18T08:43:37;96486.34;;;5.72;100.00
65800;BME280;52544;48.116;11.660;2023-11-18T08:46:06;96483.59;;;5.75;100.00
65800;BME280;52544;48.116;11.660;2023-11-18T08:48:33;96481.81;;;5.76;100.00
65800;BME280;52544;48.116;11.660;2023-11-18T08:50:59;96478.25;;;5.77;100.00
65800;BME280;52544;48.116;11.660;2023-11-18T08:53:26;96472.84;;;5.80;100.00
65800;BME280;52544;48.116;11.660;2023-11-18T08:55:52;96476.44;;;5.62;100.00
65800;BME280;52544;48.116;11.660;2023-11-18T08:58:19;96471.22;;;5.60;100.00
65800;BME280;52544;48.116;11.660;2023-11-18T09:00:51;96469.91;;;5.69;100.00
65800;BME280;52544;48.116;11.660;2023-11-18T09:03:26;96476.31;;;5.81;100.00
65800;BME280;52544;48.116;11.660;2023-11-18T09:06:04;96482.50;;;5.97;100.00
65800;BME280;52544;48.116;11.660;2023-11-18T09:08:37;96468.94;;;6.05;100.00
65800;BME280;52544;48.116;11.660;2023-11-18T09:11:09;96460.97;;;6.06;100.00
65800;BME280;52544;48.116;11.660;2023-11-18T09:13:50;96460.03;;;6.07;100.00
65800;BME280;52544;48.116;11.660;2023-11-18T09:16:20;96460.38;;;6.01;100.00
65800;BME280;52544;48.116;11.660;2023-11-18T09:18:51;96462.91;;;6.03;100.00
65800;BME280;52544;48.116;11.660;2023-11-18T09:21:16;96457.75;;;6.01;100.00
65800;BME280;52544;48.116;11.660;2023-11-18T09:23:45;96458.19;;;6.09;100.00
65800;BME280;52544;48.116;11.660;2023-11-18T09:26:13;96460.72;;;6.11;100.00
65800;BME280;52544;48.116;11.660;2023-11-18T09:28:40;96462.94;;;6.18;100.00
65800;BME280;52544;48.116;11.660;2023-11-18T09:31:06;96464.31;;;6.25;100.00
65800;BME280;52544;48.116;11.660;2023-11-18T09:33:37;96460.50;;;6.31;100.00
65800;BME280;52544;48.116;11.660;2023-11-18T09:36:07;96458.97;;;6.43;100.00
65800;BME280;52544;48.116;11.660;2023-11-18T09:38:35;96458.72;;;6.63;100.00
65800;BME280;52544;48.116;11.660;2023-11-18T09:41:02;96465.75;;;6.79;100.00
65800;BME280;52544;48.116;11.660;2023-11-18T09:43:35;96460.16;;;6.85;100.00
65800;BME280;52544;48.116;11.660;2023-11-18T09:46:14;96463.09;;;7.10;100.00
65800;BME280;52544;48.116;11.660;2023-11-18T09:48:45;96460.16;;;7.45;100.00
65800;BME280;52544;48.116;11.660;2023-11-18T09:51:20;96442.25;;;8.09;100.00
65800;BME280;52544;48.116;11.660;2023-11-18T09:53:49;96442.66;;;8.72;100.00
65800;BME280;52544;48.116;11.660;2023-11-18T09:57:04;96441.53;;;9.16;100.00
65800;BME280;52544;48.116;11.660;2023-11-18T09:59:16;96436.97;;;9.58;100.00
65800;BME280;52544;48.116;11.660;2023-11-18T10:01:50;96444.06;;;9.70;100.00
65800;BME280;52544;48.116;11.660;2023-11-18T10:04:19;96454.63;;;9.70;100.00
65800;BME280;52544;48.116;11.660;2023-11-18T10:06:46;96454.91;;;9.40;100.00
65800;BME280;52544;48.116;11.660;2023-11-18T10:09:18;96455.09;;;9.24;100.00
65800;BME280;52544;48.116;11.660;2023-11-18T10:11:50;96443.44;;;9.14;100.00
65800;BME280;52544;48.116;11.660;2023-11-18T10:14:16;96441.06;;;9.37;100.00
65800;BME280;52544;48.116;11.660;2023-11-18T10:16:43;96433.63;;;9.82;100.00
65800;BME280;52544;48.116;11.660;2023-11-18T10:19:12;96440.38;;;9.98;100.00
65800;BME280;52544;48.116;11.660;2023-11-18T10:21:37;96439.72;;;10.33;100.00
65800;BME280;52544;48.116;11.660;2023-11-18T10:24:09;96423.03;;;10.33;96.61
65800;BME280;52544;48.116;11.660;2023-11-18T10:26:45;96424.41;;;10.62;96.08
65800;BME280;52544;48.116;11.660;2023-11-18T10:29:11;96413.44;;;11.04;96.30
65800;BME280;52544;48.116;11.660;2023-11-18T10:31:39;96406.16;;;11.18;90.23
65800;BME280;52544;48.116;11.660;2023-11-18T10:34:12;96412.59;;;11.03;88.20
65800;BME280;52544;48.116;11.660;2023-11-18T10:36:40;96413.53;;;10.78;93.09
65800;BME280;52544;48.116;11.660;2023-11-18T10:39:10;96404.81;;;10.89;90.02
65800;BME280;52544;48.116;11.660;2023-11-18T10:41:42;96406.09;;;11.07;89.03
65800;BME280;52544;48.116;11.660;2023-11-18T10:44:08;96406.22;;;11.06;82.78
65800;BME280;52544;48.116;11.660;2023-11-18T10:46:46;96402.75;;;11.16;82.88
65800;BME280;52544;48.116;11.660;2023-11-18T10:49:16;96397.16;;;11.32;87.15
65800;BME280;52544;48.116;11.660;2023-11-18T10:51:43;96396.38;;;11.43;86.51
65800;BME280;52544;48.116;11.660;2023-11-18T10:54:13;96415.91;;;11.53;77.45
65800;BME280;52544;48.116;11.660;2023-11-18T10:56:49;96418.94;;;11.24;79.68
65800;BME280;52544;48.116;11.660;2023-11-18T10:59:15;96427.97;;;10.74;80.51
65800;BME280;52544;48.116;11.660;2023-11-18T11:01:44;96425.13;;;10.27;87.09
65800;BME280;52544;48.116;11.660;2023-11-18T11:04:13;96430.22;;;9.67;90.47
65800;BME280;52544;48.116;11.660;2023-11-18T11:06:45;96424.19;;;9.12;95.46
65800;BME280;52544;48.116;11.660;2023-11-18T11:09:23;96420.19;;;9.07;100.00
65800;BME280;52544;48.116;11.660;2023-11-18T11:12:06;96421.91;;;9.20;97.73
65800;BME280;52544;48.116;11.660;2023-11-18T11:14:45;96423.19;;;9.27;98.92
65800;BME280;52544;48.116;11.660;2023-11-18T11:17:17;96421.88;;;9.08;98.73
65800;BME280;52544;48.116;11.660;2023-11-18T11:20:08;96424.88;;;8.89;99.14
65800;BME280;52544;48.116;11.660;2023-11-18T11:25:48;96416.69;;;9.06;100.00
65800;BME280;52544;48.116;11.660;2023-11-18T11:28:21;96419.75;;;9.13;97.89
65800;BME280;52544;48.116;11.660;2023-11-18T11:30:55;96422.66;;;8.95;95.50
65800;BME280;52544;48.116;11.660;2023-11-18T11:33:39;96438.72;;;8.92;96.95
65800;BME280;52544;48.116;11.660;2023-11-18T11:36:17;96436.13;;;8.78;96.23
65800;BME280;52544;48.116;11.660;2023-11-18T11:38:50;96437.56;;;8.69;94.39
65800;BME280;52544;48.116;11.660;2023-11-18T11:41:17;96445.78;;;8.65;97.31
65800;BME280;52544;48.116;11.660;2023-11-18T11:43:48;96435.34;;;8.49;95.93
65800;BME280;52544;48.116;11.660;2023-11-18T11:46:14;96430.25;;;8.32;96.79
65800;BME280;52544;48.116;11.660;2023-11-18T11:48:44;96437.34;;;8.17;91.77
65800;BME280;52544;48.116;11.660;2023-11-18T11:51:34;96433.03;;;8.16;93.25
65800;BME280;52544;48.116;11.660;2023-11-18T11:57:06;96413.00;;;7.99;91.06
65800;BME280;52544;48.116;11.660;2023-11-18T11:59:35;96414.97;;;7.95;93.70
65800;BME280;52544;48.116;11.660;2023-11-18T12:02:02;96408.53;;;7.85;95.43
65800;BME280;52544;48.116;11.660;2023-11-18T12:04:33;96408.09;;;7.79;95.89
65800;BME280;52544;48.116;11.660;2023-11-18T12:06:59;96390.38;;;7.81;94.17
65800;BME280;52544;48.116;11.660;2023-11-18T12:09:31;96411.47;;;7.81;92.25
65800;BME280;52544;48.116;11.660;2023-11-18T12:12:03;96394.75;;;7.82;91.25
65800;BME280;52544;48.116;11.660;2023-11-18T12:14:30;96397.94;;;7.87;92.35
65800;BME280;52544;48.116;11.660;2023-11-18T12:17:07;96382.28;;;7.98;93.98
65800;BME280;52544;48.116;11.660;2023-11-18T12:19:37;96397.16;;;8.13;94.89
65800;BME280;52544;48.116;11.660;2023-11-18T12:22:22;96396.56;;;8.22;93.51
65800;BME280;52544;48.116;11.660;2023-11-18T12:38:30;96361.78;;;8.44;94.94
65800;BME280;52544;48.116;11.660;2023-11-18T12:41:36;96367.81;;;8.73;92.22
65800;BME280;52544;48.116;11.660;2023-11-18T12:45:12;96358.53;;;8.81;90.72
65800;BME280;52544;48.116;11.660;2023-11-18T12:47:19;96354.31;;;8.78;93.25
65800;BME280;52544;48.116;11.660;2023-11-18T12:49:47;96350.28;;;8.72;95.43
65800;BME280;52544;48.116;11.660;2023-11-18T12:52:20;96342.75;;;8.66;96.65
65800;BME280;52544;48.116;11.660;2023-11-18T12:54:47;96339.94;;;8.69;100.00
65800;BME280;52544;48.116;11.660;2023-11-18T12:57:26;96333.41;;;8.75;98.05
65800;BME280;52544;48.116;11.660;2023-11-18T12:59:56;96335.13;;;8.89;94.45
65800;BME280;52544;48.116;11.660;2023-11-18T13:02:22;96328.16;;;8.88;94.32
65800;BME280;52544;48.116;11.660;2023-11-18T13:04:49;96337.00;;;8.87;96.45
65800;BME280;52544;48.116;11.660;2023-11-18T13:07:16;96340.88;;;8.68;95.85
65800;BME280;52544;48.116;11.660;2023-11-18T13:09:42;96342.75;;;8.66;100.00
65800;BME280;52544;48.116;11.660;2023-11-18T13:12:09;96335.19;;;8.74;99.19
65800;BME280;52544;48.116;11.660;2023-11-18T13:14:36;96322.13;;;8.86;97.55
65800;BME280;52544;48.116;11.660;2023-11-18T13:17:08;96316.41;;;8.79;97.41
65800;BME280;52544;48.116;11.660;2023-11-18T13:19:34;96323.47;;;8.79;98.26